NY90 weather

Medina Memorial Hospital Heliport
Medina, New York, United States

Public forecast

Using degrees Fahrenheit for public forecast. Weather courtesy of forecast.io.

METAR (pilot weather report)

Closest report is Buffalo Niagara International Airport, 22.4 nm (41.5 km) SW. Retrieved 2019/06/19 23:54 UTC (19 minutes ago):

KBUF 192354Z 04006KT 10SM FEW045 SCT080 SCT150 BKN240 23/16 A2970 RMK AO2 SLP054 T02330156 10278 20233 56008

TAF (pilot weather forecast)

Forecast is more than 12 hours old.

Closest forecast is Buffalo Niagara International Airport, 22.4 nm (41.5 km) SW. Retrieved 2019/06/19 00:36 UTC (24 hours ago):

TAF KBUF 192335Z 2000/2024 05005KT P6SM SCT070 BKN250 FM200300 VRB03KT P6SM BKN070 FM200700 VRB03KT P6SM BKN040 FM201100 06004KT 5SM -RA BR OVC020 FM201400 05006KT 2SM +RA BR OVC007 FM201800 05011KT 4SM RA BR OVC007